createdAt,value
2023-02-16T00:00:07.350Z,52.2
2023-02-16T00:02:09.006Z,52.1
2023-02-16T00:04:07.300Z,52.2
2023-02-16T00:06:07.560Z,52
2023-02-16T00:08:07.310Z,52
2023-02-16T00:10:07.338Z,52.4
2023-02-16T00:12:07.351Z,52.6
2023-02-16T00:14:17.328Z,52.5
2023-02-16T00:15:31.114Z,52.7
2023-02-16T00:17:31.118Z,52.5
2023-02-16T00:19:31.106Z,52.6
2023-02-16T00:21:31.326Z,52.8
2023-02-16T00:23:31.077Z,52.6
2023-02-16T00:25:31.135Z,52.7
2023-02-16T00:27:21.985Z,52.6
2023-02-16T00:28:54.904Z,52.9
2023-02-16T00:30:55.023Z,53.1
2023-02-16T00:32:55.172Z,53.1
2023-02-16T00:34:54.913Z,53.1
2023-02-16T00:36:54.824Z,52.7
2023-02-16T00:38:54.954Z,53
2023-02-16T00:40:54.852Z,53.2
2023-02-16T00:42:56.626Z,52.9
2023-02-16T00:44:55.099Z,53.4
2023-02-16T00:46:54.829Z,53.4
2023-02-16T00:48:41.321Z,53.3
2023-02-16T00:49:50.349Z,53.3
2023-02-16T00:51:50.170Z,53.3
2023-02-16T00:53:50.393Z,53.3
2023-02-16T00:55:50.598Z,53.4
2023-02-16T00:57:50.153Z,53.5
2023-02-16T00:59:50.304Z,53.7
2023-02-16T01:01:50.361Z,53.5
2023-02-16T01:03:51.244Z,53.7
2023-02-16T01:04:48.817Z,53.9
2023-02-16T01:06:48.890Z,53.7
2023-02-16T01:08:48.691Z,54.3
2023-02-16T01:10:48.738Z,54.5
2023-02-16T01:12:49.001Z,54.2
2023-02-16T01:14:48.941Z,54.8
2023-02-16T01:16:48.721Z,54.3
2023-02-16T01:18:48.962Z,54.4
2023-02-16T01:19:00.929Z,54.4
2023-02-16T01:20:02.778Z,54.3
2023-02-16T01:22:02.893Z,54.7
2023-02-16T01:24:02.763Z,54.7
2023-02-16T01:26:02.762Z,55.1
2023-02-16T01:28:02.745Z,54.9
2023-02-16T01:30:02.990Z,55
2023-02-16T01:32:03.141Z,55.2
2023-02-16T01:34:08.242Z,55.2
2023-02-16T01:35:15.488Z,55.1
2023-02-16T01:37:15.238Z,54.9
2023-02-16T01:39:15.247Z,55
2023-02-16T01:41:15.162Z,54.9
2023-02-16T01:43:15.195Z,55
2023-02-16T01:45:15.128Z,55.3
2023-02-16T01:47:15.224Z,55.2
2023-02-16T01:49:17.252Z,55.2
2023-02-16T01:50:21.339Z,55.4
2023-02-16T01:52:21.570Z,55.6
2023-02-16T01:54:21.467Z,55.7
2023-02-16T01:56:21.252Z,55.5
2023-02-16T01:58:21.313Z,55.6
2023-02-16T02:00:22.788Z,55.8
2023-02-16T02:02:22.898Z,55.5
2023-02-16T02:04:21.235Z,55.4
2023-02-16T02:06:21.250Z,55.8
2023-02-16T02:07:10.012Z,55.7
2023-02-16T02:08:07.681Z,55.8
2023-02-16T02:10:07.378Z,55.8
2023-02-16T02:12:07.437Z,56.1
2023-02-16T02:14:07.383Z,55.9
2023-02-16T02:16:07.460Z,55.7
2023-02-16T02:18:07.702Z,55.6
2023-02-16T02:20:07.729Z,56.3
2023-02-16T02:22:07.633Z,55.8
2023-02-16T02:22:17.917Z,55.8
2023-02-16T02:23:43.065Z,55.8
2023-02-16T02:25:43.057Z,56.8
2023-02-16T02:27:44.512Z,56.5
2023-02-16T02:29:43.230Z,56.5
2023-02-16T02:31:43.126Z,56.7
2023-02-16T02:33:43.223Z,56.6
2023-02-16T02:35:43.306Z,56.9
2023-02-16T02:36:33.485Z,56.9
2023-02-16T02:37:43.052Z,57.1
2023-02-16T02:39:43.014Z,56.7
2023-02-16T02:41:43.047Z,57.4
2023-02-16T02:43:43.055Z,57.4
2023-02-16T02:45:43.034Z,57.9
2023-02-16T02:47:43.080Z,57.1
2023-02-16T02:49:43.120Z,57.3
2023-02-16T02:51:43.297Z,58.1
2023-02-16T02:53:43.296Z,57.4
2023-02-16T02:55:43.043Z,58.2
2023-02-16T02:57:43.178Z,57.6
2023-02-16T02:59:43.096Z,58.5
2023-02-16T03:01:45.743Z,59.1
2023-02-16T03:03:43.014Z,58.8
2023-02-16T03:05:43.114Z,59.9
2023-02-16T03:07:43.007Z,58.9
2023-02-16T03:09:43.149Z,60.1
2023-02-16T03:11:43.009Z,59.7
2023-02-16T03:13:43.021Z,59
2023-02-16T03:15:42.992Z,59.7
2023-02-16T03:17:43.286Z,59.2
2023-02-16T03:19:42.995Z,59.5
2023-02-16T03:21:43.041Z,60.4
2023-02-16T03:23:42.965Z,59.9
2023-02-16T03:25:43.303Z,61.7
2023-02-16T03:27:43.012Z,61.2
2023-02-16T03:29:42.981Z,61.9
2023-02-16T03:31:43.247Z,62.7
2023-02-16T03:33:42.956Z,61.9
2023-02-16T03:35:42.988Z,62.9
2023-02-16T03:37:42.951Z,62.6
2023-02-16T03:39:43.012Z,63.1
2023-02-16T03:41:43.072Z,61.9
2023-02-16T03:43:43.009Z,63.8
2023-02-16T03:45:43.020Z,63.4
2023-02-16T03:47:42.945Z,62.2
2023-02-16T03:49:43.001Z,62.9
2023-02-16T03:51:42.946Z,62.3
2023-02-16T03:53:42.971Z,63.1
2023-02-16T03:55:42.967Z,62.6
2023-02-16T03:57:42.960Z,63.1
2023-02-16T03:59:42.939Z,65.6
2023-02-16T04:01:45.653Z,64.6
2023-02-16T04:03:42.954Z,63.4
2023-02-16T04:05:42.965Z,64
2023-02-16T04:07:42.924Z,63.6
2023-02-16T04:09:42.997Z,66
2023-02-16T04:11:43.035Z,65
2023-02-16T04:13:42.950Z,65.1
2023-02-16T04:15:42.927Z,64.6
2023-02-16T04:17:42.905Z,64.3
2023-02-16T04:19:42.938Z,64.8
2023-02-16T04:21:42.944Z,64.6
2023-02-16T04:23:42.930Z,66.7
2023-02-16T04:25:42.913Z,65.7
2023-02-16T04:27:42.967Z,66.5
2023-02-16T04:29:42.919Z,65.9
2023-02-16T04:31:43.114Z,66
2023-02-16T04:33:42.896Z,66.9
2023-02-16T04:35:42.901Z,66.3
2023-02-16T04:37:42.900Z,67.2
2023-02-16T04:39:42.898Z,66.6
2023-02-16T04:41:42.891Z,65.8
2023-02-16T04:43:42.920Z,67
2023-02-16T04:45:42.982Z,66.7
2023-02-16T04:47:42.949Z,65.9
2023-02-16T04:49:42.887Z,66.3
2023-02-16T04:51:42.903Z,67.6
2023-02-16T04:53:42.857Z,68.8
2023-02-16T04:55:42.924Z,67.7
2023-02-16T04:57:42.914Z,68.1
2023-02-16T04:59:42.876Z,67.3
2023-02-16T05:01:43.107Z,67.1
2023-02-16T05:03:42.902Z,67.1
2023-02-16T05:05:42.850Z,68.2
2023-02-16T05:07:42.966Z,67.4
2023-02-16T05:09:42.843Z,68.5
2023-02-16T05:11:42.881Z,67.8
2023-02-16T05:13:42.977Z,69
2023-02-16T05:15:42.966Z,68.8
2023-02-16T05:17:42.878Z,67.8
2023-02-16T05:19:42.870Z,68.1
2023-02-16T05:21:42.881Z,68.7
2023-02-16T05:23:42.839Z,68.5
2023-02-16T05:25:42.845Z,70
2023-02-16T05:27:42.854Z,68.4
2023-02-16T05:29:42.897Z,69.8
2023-02-16T05:31:43.015Z,70.1
2023-02-16T05:33:44.227Z,69.2
2023-02-16T05:35:42.881Z,69.5
2023-02-16T05:37:42.893Z,69
2023-02-16T05:39:42.854Z,69.5
2023-02-16T05:41:42.836Z,69
2023-02-16T05:43:42.867Z,69.5
2023-02-16T05:45:42.853Z,70.6
2023-02-16T05:47:43.430Z,68.7
2023-02-16T05:49:42.934Z,68.5
2023-02-16T05:51:42.843Z,69.4
2023-02-16T05:53:42.829Z,68.8
2023-02-16T05:55:42.829Z,69.5
2023-02-16T05:57:42.848Z,68.9
2023-02-16T05:59:42.844Z,69.9
2023-02-16T06:01:42.838Z,70.7
2023-02-16T06:03:42.887Z,70.2
2023-02-16T06:05:42.847Z,69.6
2023-02-16T06:07:42.822Z,69.4
2023-02-16T06:09:42.844Z,70.4
2023-02-16T06:11:42.841Z,70.3
2023-02-16T06:13:42.828Z,69.6
2023-02-16T06:15:42.863Z,69.5
2023-02-16T06:17:42.735Z,69.9
2023-02-16T06:19:42.804Z,70.4
2023-02-16T06:21:42.828Z,69.8
2023-02-16T06:23:42.796Z,69.8
2023-02-16T06:25:42.818Z,69.1
2023-02-16T06:27:42.752Z,70
2023-02-16T06:29:42.834Z,69.5
2023-02-16T06:31:42.917Z,70.3
2023-02-16T06:33:42.817Z,70.2
2023-02-16T06:35:42.797Z,71.6
2023-02-16T06:37:42.766Z,71.1
2023-02-16T06:39:42.751Z,70
2023-02-16T06:41:42.733Z,69.8
2023-02-16T06:43:42.772Z,70.3
2023-02-16T06:45:42.757Z,71.9
2023-02-16T06:47:42.709Z,71.6
2023-02-16T06:49:42.769Z,72.1
2023-02-16T06:51:42.728Z,72.6
2023-02-16T06:53:42.735Z,71.8
2023-02-16T06:55:42.842Z,73.3
2023-02-16T06:57:42.768Z,72
2023-02-16T06:59:42.753Z,72
2023-02-16T07:01:44.908Z,73
2023-02-16T07:03:42.750Z,72.1
2023-02-16T07:05:42.744Z,71.3
2023-02-16T07:07:42.753Z,71
2023-02-16T07:09:42.760Z,70.9
2023-02-16T07:11:42.785Z,70.7
2023-02-16T07:13:42.719Z,71.1
2023-02-16T07:15:42.720Z,71.7
2023-02-16T07:17:42.780Z,70.8
2023-02-16T07:19:42.744Z,71.3
2023-02-16T07:21:42.705Z,71.3
2023-02-16T07:23:42.728Z,71.8
2023-02-16T07:25:42.716Z,71.6
2023-02-16T07:27:42.732Z,71.1
2023-02-16T07:29:42.712Z,70.4
2023-02-16T07:31:42.819Z,71
2023-02-16T07:33:42.718Z,71.5
2023-02-16T07:35:44.292Z,72.6
2023-02-16T07:37:42.726Z,71.4
2023-02-16T07:39:42.743Z,71.6
2023-02-16T07:41:42.733Z,72.2
2023-02-16T07:43:42.852Z,72.7
2023-02-16T07:45:42.831Z,71.9
2023-02-16T07:47:42.686Z,71.5
2023-02-16T07:49:42.679Z,73.4
2023-02-16T07:51:42.727Z,72.6
2023-02-16T07:53:42.680Z,72.3
2023-02-16T07:55:42.666Z,73.5
2023-02-16T07:57:42.690Z,72.8
2023-02-16T07:59:42.740Z,72.7
2023-02-16T08:01:42.700Z,72.3
2023-02-16T08:03:42.688Z,75.2
2023-02-16T08:05:42.649Z,74.8
2023-02-16T08:07:42.658Z,73.8
2023-02-16T08:09:42.689Z,74.1
2023-02-16T08:11:42.674Z,74.2
2023-02-16T08:13:42.706Z,73.7
2023-02-16T08:15:42.654Z,75.5
2023-02-16T08:17:42.654Z,75.1
2023-02-16T08:19:42.649Z,75.2
2023-02-16T08:21:42.634Z,75.6
2023-02-16T08:23:42.655Z,76
2023-02-16T08:25:42.642Z,75
2023-02-16T08:27:42.644Z,74.4
2023-02-16T08:29:42.620Z,75.5
2023-02-16T08:31:42.761Z,74.9
2023-02-16T08:33:42.662Z,74.4
2023-02-16T08:35:42.634Z,74.1
2023-02-16T08:37:42.640Z,74.8
2023-02-16T08:39:42.671Z,74.9
2023-02-16T08:41:42.776Z,75.7
2023-02-16T08:43:42.631Z,74.8
2023-02-16T08:45:42.653Z,74.5
2023-02-16T08:47:42.617Z,74.3
2023-02-16T08:49:42.639Z,74.4
2023-02-16T08:51:42.607Z,75.2
2023-02-16T08:53:42.651Z,74.6
2023-02-16T08:55:42.601Z,74
2023-02-16T08:57:42.608Z,74.3
2023-02-16T08:59:42.615Z,75.2
2023-02-16T09:01:42.632Z,74.9
2023-02-16T09:03:42.598Z,74.6
2023-02-16T09:05:42.604Z,75.4
2023-02-16T09:07:42.619Z,75.7
2023-02-16T09:09:42.873Z,74.3
2023-02-16T09:11:42.606Z,74.3
2023-02-16T09:13:42.583Z,75
2023-02-16T09:15:42.652Z,74.4
2023-02-16T09:17:42.582Z,74.8
2023-02-16T09:19:42.633Z,74.9
2023-02-16T09:21:42.570Z,75.2
2023-02-16T09:23:43.449Z,74.8
2023-02-16T09:25:42.615Z,74.6
2023-02-16T09:27:42.563Z,75.1
2023-02-16T09:29:42.571Z,74.4
2023-02-16T09:31:42.592Z,74.5
2023-02-16T09:33:42.561Z,75.2
2023-02-16T09:35:42.546Z,75
2023-02-16T09:37:42.586Z,74.6
2023-02-16T09:39:42.604Z,75.2
2023-02-16T09:41:42.556Z,74.8
2023-02-16T09:43:42.559Z,73.8
2023-02-16T09:45:42.657Z,74.6
2023-02-16T09:47:42.542Z,74.3
2023-02-16T09:49:42.573Z,73.3
2023-02-16T09:51:42.557Z,74.7
2023-02-16T09:53:42.539Z,75.6
2023-02-16T09:55:42.522Z,74.9
2023-02-16T09:57:42.539Z,75.4
2023-02-16T09:59:42.515Z,74
2023-02-16T10:01:42.665Z,74
2023-02-16T10:03:42.529Z,75
2023-02-16T10:05:42.582Z,75
2023-02-16T10:07:42.543Z,74.9
2023-02-16T10:09:42.545Z,74.7
2023-02-16T10:11:42.927Z,75.3
2023-02-16T10:13:42.532Z,76.1
2023-02-16T10:15:42.532Z,75.3
2023-02-16T10:17:42.511Z,75
2023-02-16T10:19:42.503Z,74.3
2023-02-16T10:21:42.546Z,75.1
2023-02-16T10:23:42.503Z,74.4
2023-02-16T10:25:42.478Z,74.2
2023-02-16T10:27:42.504Z,73.8
2023-02-16T10:29:42.566Z,73.8
2023-02-16T10:31:42.554Z,74.3
2023-02-16T10:33:42.516Z,74.9
2023-02-16T10:35:42.474Z,74.4
2023-02-16T10:37:42.485Z,74.2
2023-02-16T10:39:42.492Z,74.2
2023-02-16T10:41:42.507Z,73.9
2023-02-16T10:43:42.558Z,75.5
2023-02-16T10:45:42.550Z,75.9
2023-02-16T10:47:42.499Z,75.7
2023-02-16T10:49:42.488Z,74.9
2023-02-16T10:51:42.488Z,74.4
2023-02-16T10:53:42.566Z,75.1
2023-02-16T10:55:42.467Z,75
2023-02-16T10:57:42.458Z,75.2
2023-02-16T10:59:42.443Z,75.1
2023-02-16T11:01:42.486Z,74.2
2023-02-16T11:03:42.458Z,75.8
2023-02-16T11:05:42.477Z,74.7
2023-02-16T11:07:42.471Z,75.5
2023-02-16T11:09:42.450Z,75.9
2023-02-16T11:11:42.468Z,75.1
2023-02-16T11:13:42.672Z,75.8
2023-02-16T11:15:42.468Z,74.9
2023-02-16T11:17:42.494Z,74.8
2023-02-16T11:19:42.462Z,74.9
2023-02-16T11:21:42.428Z,74.8
2023-02-16T11:23:42.476Z,75.4
2023-02-16T11:25:42.528Z,76.4
2023-02-16T11:27:42.492Z,76.5
2023-02-16T11:29:42.493Z,76.9
2023-02-16T11:31:42.626Z,76.1
2023-02-16T11:33:42.511Z,75.8
2023-02-16T11:35:42.514Z,76.6
2023-02-16T11:37:42.555Z,76
2023-02-16T11:39:42.448Z,75.1
2023-02-16T11:41:43.856Z,75.7
2023-02-16T11:43:43.656Z,75.2
2023-02-16T11:45:42.550Z,75
2023-02-16T11:47:42.505Z,75.4
2023-02-16T11:49:42.567Z,74.7
2023-02-16T11:51:42.450Z,75.2
2023-02-16T11:53:42.613Z,76
2023-02-16T11:55:42.504Z,76.8
2023-02-16T11:57:42.468Z,76.4
2023-02-16T11:59:42.543Z,76.4
2023-02-16T12:01:43.660Z,76.4
2023-02-16T12:03:42.482Z,75.5
2023-02-16T12:05:42.468Z,76.5
2023-02-16T12:07:42.477Z,76.4
2023-02-16T12:09:42.408Z,75.8
2023-02-16T12:11:42.532Z,75.4
2023-02-16T12:13:43.818Z,75.7
2023-02-16T12:15:42.645Z,75.4
2023-02-16T12:17:42.430Z,74.9
2023-02-16T12:19:43.670Z,75.2
2023-02-16T12:21:42.434Z,75.5
2023-02-16T12:23:42.473Z,74.9
2023-02-16T12:25:42.369Z,75.4
2023-02-16T12:27:42.440Z,76.7
2023-02-16T12:29:42.404Z,76.3
2023-02-16T12:31:42.507Z,76.5
2023-02-16T12:33:43.479Z,76.1
2023-02-16T12:35:42.565Z,76.5
2023-02-16T12:37:42.501Z,76.2
2023-02-16T12:39:42.428Z,76.3
2023-02-16T12:41:43.848Z,75.5
2023-02-16T12:43:42.442Z,74.9
2023-02-16T12:45:42.532Z,75.4
2023-02-16T12:47:42.579Z,75.2
2023-02-16T12:49:42.462Z,74.5
2023-02-16T12:51:42.534Z,74.9
2023-02-16T12:53:42.471Z,74.1
2023-02-16T12:55:42.388Z,74.3
2023-02-16T12:57:42.381Z,74.5
2023-02-16T12:59:42.406Z,74.8
2023-02-16T13:01:43.737Z,74.9
2023-02-16T13:03:42.471Z,74.6
2023-02-16T13:05:42.362Z,74.3
2023-02-16T13:07:42.431Z,74.5
2023-02-16T13:09:42.535Z,74.9
2023-02-16T13:11:44.921Z,74.7
2023-02-16T13:13:42.354Z,75.1
2023-02-16T13:15:42.373Z,74.9
2023-02-16T13:17:42.655Z,74.7
2023-02-16T13:19:42.386Z,74.1
2023-02-16T13:21:50.759Z,74
2023-02-16T13:23:42.340Z,74
2023-02-16T13:25:21.726Z,74
2023-02-16T13:25:42.642Z,74.1
2023-02-16T13:27:42.495Z,73.4
2023-02-16T13:29:44.479Z,73.5
2023-02-16T13:31:42.631Z,73.4
2023-02-16T13:33:42.449Z,73.6
2023-02-16T13:35:42.473Z,73.1
2023-02-16T13:37:42.434Z,72.9
2023-02-16T13:39:42.560Z,72.5
2023-02-16T13:41:42.423Z,72.9
2023-02-16T13:43:43.647Z,72.6
2023-02-16T13:45:42.398Z,72.4
2023-02-16T13:47:46.723Z,72.4
2023-02-16T13:49:42.434Z,71.8
2023-02-16T13:51:43.639Z,71.9
2023-02-16T13:53:42.394Z,71.3
2023-02-16T13:55:42.387Z,71.2
2023-02-16T13:57:43.296Z,70.8
2023-02-16T13:59:42.314Z,69.9
2023-02-16T14:01:42.352Z,69.5
2023-02-16T14:03:42.376Z,69
2023-02-16T14:05:42.271Z,68.3
2023-02-16T14:07:42.389Z,68.8
2023-02-16T14:09:42.404Z,68.3
2023-02-16T14:11:42.375Z,67.3
2023-02-16T14:13:42.521Z,67.3
2023-02-16T14:15:42.342Z,66.8
2023-02-16T14:17:42.418Z,66.7
2023-02-16T14:19:42.652Z,66.4
2023-02-16T14:21:42.348Z,66.5
2023-02-16T14:23:42.303Z,66.9
2023-02-16T14:25:42.494Z,66.8
2023-02-16T14:27:42.297Z,66.5
2023-02-16T14:29:43.411Z,66.2
2023-02-16T14:31:43.946Z,66.4
2023-02-16T14:33:42.428Z,66.3
2023-02-16T14:35:42.385Z,66.2
2023-02-16T14:37:43.401Z,64.5
2023-02-16T14:39:58.508Z,65.2
2023-02-16T14:41:42.383Z,65.5
2023-02-16T14:43:43.348Z,65.9
2023-02-16T14:45:42.304Z,65.7
2023-02-16T14:47:42.370Z,65.2
2023-02-16T14:49:42.277Z,64.2
2023-02-16T14:51:42.341Z,64
2023-02-16T14:53:42.376Z,64
2023-02-16T14:55:42.303Z,63.5
2023-02-16T14:57:42.291Z,62.9
2023-02-16T14:59:42.308Z,62.6
2023-02-16T15:01:42.382Z,62.6
2023-02-16T15:03:44.180Z,61.9
2023-02-16T15:05:42.482Z,62.8
2023-02-16T15:07:42.290Z,62
2023-02-16T15:09:42.273Z,62
2023-02-16T15:11:43.300Z,61.8
2023-02-16T15:13:42.240Z,61.6
2023-02-16T15:15:42.430Z,60.9
2023-02-16T15:17:42.288Z,62.2
2023-02-16T15:19:42.478Z,62.8
2023-02-16T15:21:42.290Z,62.8
2023-02-16T15:23:42.285Z,62.8
2023-02-16T15:25:43.400Z,63.7
2023-02-16T15:27:42.367Z,63.5
2023-02-16T15:29:42.339Z,64.1
2023-02-16T15:31:42.361Z,64.5
2023-02-16T15:33:43.446Z,64.8
2023-02-16T15:35:44.713Z,63.9
2023-02-16T15:37:42.249Z,63.5
2023-02-16T15:39:56.135Z,63.3
2023-02-16T15:41:42.278Z,63.3
2023-02-16T15:43:42.334Z,63
2023-02-16T15:45:43.579Z,63.1
2023-02-16T15:47:42.862Z,63.5
2023-02-16T15:49:42.208Z,63.4
2023-02-16T15:51:42.248Z,63
2023-02-16T15:53:42.205Z,63.4
2023-02-16T15:55:42.225Z,63.4
2023-02-16T15:57:42.237Z,63.3
2023-02-16T15:59:42.122Z,62.8
2023-02-16T16:01:42.446Z,62.9
2023-02-16T16:03:42.225Z,63.5
2023-02-16T16:05:42.174Z,63.2
2023-02-16T16:07:42.230Z,63.2
2023-02-16T16:09:42.345Z,62.8
2023-02-16T16:11:42.321Z,62.8
2023-02-16T16:13:42.285Z,62.8
2023-02-16T16:15:43.563Z,62.9
2023-02-16T16:17:42.220Z,63.3
2023-02-16T16:19:42.179Z,61.7
2023-02-16T16:21:42.155Z,61.3
2023-02-16T16:23:42.442Z,61.2
2023-02-16T16:25:42.309Z,61.3
2023-02-16T16:27:42.232Z,61.4
2023-02-16T16:29:42.148Z,61.6
2023-02-16T16:31:42.490Z,60.9
2023-02-16T16:33:42.169Z,61.2
2023-02-16T16:35:43.173Z,60.8
2023-02-16T16:37:43.180Z,61
2023-02-16T16:39:43.443Z,61.6
2023-02-16T16:41:42.231Z,61.7
2023-02-16T16:43:42.323Z,61.5
2023-02-16T16:45:42.280Z,60.8
2023-02-16T16:47:42.235Z,61.3
2023-02-16T16:49:42.292Z,61.4
2023-02-16T16:51:42.230Z,61.6
2023-02-16T16:53:42.201Z,61.6
2023-02-16T16:55:42.174Z,61.8
2023-02-16T16:57:42.177Z,61.3
2023-02-16T16:59:42.264Z,61.5
2023-02-16T17:01:43.238Z,62
2023-02-16T17:03:42.212Z,61.7
2023-02-16T17:05:43.523Z,61.5
2023-02-16T17:07:42.106Z,61.6
2023-02-16T17:09:42.244Z,61.8
2023-02-16T17:11:43.184Z,61.8
2023-02-16T17:13:42.223Z,61.9
2023-02-16T17:15:42.259Z,62
2023-02-16T17:17:42.121Z,61.9
2023-02-16T17:19:42.514Z,61.7
2023-02-16T17:21:42.162Z,61.4
2023-02-16T17:23:50.497Z,61.9
2023-02-16T17:25:42.097Z,61.1
2023-02-16T17:27:43.113Z,60.4
2023-02-16T17:29:42.190Z,60.4
2023-02-16T17:31:42.189Z,60.1
2023-02-16T17:33:44.782Z,60.7
2023-02-16T17:35:42.283Z,60
2023-02-16T17:37:43.185Z,59.1
2023-02-16T17:39:42.102Z,59.5
2023-02-16T17:41:42.156Z,59.2
2023-02-16T17:43:43.423Z,57.3
2023-02-16T17:44:09.000Z,57.3
2023-02-16T17:45:37.170Z,58.3
2023-02-16T17:47:37.168Z,59.2
2023-02-16T17:49:38.606Z,59.4
2023-02-16T17:51:36.987Z,60
2023-02-16T17:53:37.052Z,59.3
2023-02-16T17:55:38.244Z,59.4
2023-02-16T17:57:37.065Z,59.7
2023-02-16T17:59:37.068Z,59.7
2023-02-16T18:01:37.217Z,59.6
2023-02-16T18:03:36.953Z,59.2
2023-02-16T18:05:37.110Z,59.4
2023-02-16T18:07:36.938Z,59.7
2023-02-16T18:09:36.895Z,60
2023-02-16T18:11:37.042Z,60.4
2023-02-16T18:13:38.121Z,60.4
2023-02-16T18:15:36.967Z,60.4
2023-02-16T18:17:36.990Z,60.1
2023-02-16T18:19:37.012Z,59.6
2023-02-16T18:21:37.006Z,59.9
2023-02-16T18:23:37.003Z,60.2
2023-02-16T18:25:38.169Z,60.2
2023-02-16T18:27:36.985Z,59.5
2023-02-16T18:29:36.927Z,58.7
2023-02-16T18:31:45.537Z,58.8
2023-02-16T18:33:37.062Z,58.5
2023-02-16T18:35:36.951Z,59.2
2023-02-16T18:37:36.923Z,59.6
2023-02-16T18:39:38.637Z,59.8
2023-02-16T18:41:39.007Z,59.8
2023-02-16T18:43:42.874Z,60.6
2023-02-16T18:45:36.959Z,60.2
2023-02-16T18:47:38.218Z,59.4
2023-02-16T18:49:36.933Z,58.8
2023-02-16T18:51:36.907Z,58.4
2023-02-16T18:53:36.916Z,58.7
2023-02-16T18:55:38.345Z,59.9
2023-02-16T18:57:38.070Z,59.9
2023-02-16T18:59:37.114Z,60
2023-02-16T19:01:36.985Z,59.8
2023-02-16T19:03:37.046Z,59.8
2023-02-16T19:05:39.563Z,60.2
2023-02-16T19:07:36.925Z,60.3
2023-02-16T19:09:38.048Z,60.5
2023-02-16T19:11:36.963Z,60.6
2023-02-16T19:13:36.844Z,59.8
2023-02-16T19:15:36.935Z,60.2
2023-02-16T19:17:36.990Z,60.8
2023-02-16T19:19:39.779Z,61.3
2023-02-16T19:21:36.942Z,60.5
2023-02-16T19:23:37.169Z,60.1
2023-02-16T19:25:38.207Z,60.2
2023-02-16T19:27:37.999Z,60.3
2023-02-16T19:29:37.011Z,60.1
2023-02-16T19:31:38.346Z,61.2
2023-02-16T19:33:37.093Z,60.5
2023-02-16T19:35:36.993Z,61
2023-02-16T19:37:38.280Z,60.4
2023-02-16T19:39:36.908Z,58.2
2023-02-16T19:41:36.870Z,58.1
2023-02-16T19:43:36.846Z,58.3
2023-02-16T19:45:37.055Z,56.9
2023-02-16T19:47:36.954Z,55.9
2023-02-16T19:49:36.855Z,56
2023-02-16T19:51:36.901Z,57.1
2023-02-16T19:53:36.958Z,56.9
2023-02-16T19:55:41.400Z,56.1
2023-02-16T19:57:36.834Z,56.3
2023-02-16T19:59:38.368Z,57.3
2023-02-16T20:01:36.965Z,57.3
2023-02-16T20:03:38.102Z,56.5
2023-02-16T20:05:39.357Z,56.5
2023-02-16T20:07:36.812Z,56.6
2023-02-16T20:09:39.774Z,57.1
2023-02-16T20:11:38.269Z,56.9
2023-02-16T20:13:38.296Z,56.8
2023-02-16T20:15:36.896Z,57.2
2023-02-16T20:17:36.830Z,57.5
2023-02-16T20:19:38.409Z,55.4
2023-02-16T20:21:36.856Z,56.4
2023-02-16T20:23:36.759Z,56.2
2023-02-16T20:25:36.869Z,56.1
2023-02-16T20:27:36.928Z,55.5
2023-02-16T20:29:38.622Z,56
2023-02-16T20:31:38.204Z,55
2023-02-16T20:33:36.874Z,56
2023-02-16T20:35:36.912Z,56.5
2023-02-16T20:37:36.869Z,56.9
2023-02-16T20:39:45.727Z,56.5
2023-02-16T20:41:36.938Z,56.7
2023-02-16T20:43:38.286Z,55.9
2023-02-16T20:45:37.063Z,54.9
2023-02-16T20:47:36.831Z,55
2023-02-16T20:49:36.851Z,55.7
2023-02-16T20:51:36.895Z,55.6
2023-02-16T20:53:36.946Z,56.6
2023-02-16T20:55:38.181Z,56.1
2023-02-16T20:57:36.794Z,55.7
2023-02-16T20:59:36.819Z,55
2023-02-16T21:01:39.644Z,55.7
2023-02-16T21:03:41.021Z,56.3
2023-02-16T21:05:36.936Z,56.2
2023-02-16T21:07:37.857Z,56.5
2023-02-16T21:09:36.784Z,56.5
2023-02-16T21:11:36.829Z,55.5
2023-02-16T21:13:36.782Z,55.1
2023-02-16T21:15:36.749Z,55.3
2023-02-16T21:17:36.792Z,56.2
2023-02-16T21:19:36.843Z,56
2023-02-16T21:21:36.714Z,56.6
2023-02-16T21:23:36.782Z,56.5
2023-02-16T21:25:00.957Z,56.5
2023-02-16T21:25:36.822Z,56.3
2023-02-16T21:27:36.944Z,56.4
2023-02-16T21:29:36.828Z,57
2023-02-16T21:31:36.853Z,57.8
2023-02-16T21:33:36.796Z,58
2023-02-16T21:35:36.981Z,57.4
2023-02-16T21:37:36.754Z,58
2023-02-16T21:39:36.748Z,58
2023-02-16T21:41:36.780Z,58.2
2023-02-16T21:43:36.905Z,58.5
2023-02-16T21:45:36.873Z,58.9
2023-02-16T21:47:36.803Z,58.7
2023-02-16T21:49:36.777Z,58.8
2023-02-16T21:51:38.202Z,58.9
2023-02-16T21:53:37.872Z,59
2023-02-16T21:55:36.855Z,59.3
2023-02-16T21:57:36.862Z,59.3
2023-02-16T21:59:36.827Z,59.3
2023-02-16T22:01:36.744Z,59.5
2023-02-16T22:03:36.800Z,59.5
2023-02-16T22:05:36.752Z,59.9
2023-02-16T22:07:36.741Z,60
2023-02-16T22:09:36.687Z,60.4
2023-02-16T22:11:36.696Z,60.3
2023-02-16T22:13:36.769Z,60.4
2023-02-16T22:15:40.799Z,60.8
2023-02-16T22:17:36.736Z,61.2
2023-02-16T22:19:38.082Z,60.9
2023-02-16T22:21:36.795Z,60.7
2023-02-16T22:23:38.557Z,61.4
2023-02-16T22:25:36.897Z,61.1
2023-02-16T22:27:36.694Z,61.2
2023-02-16T22:29:36.716Z,61.3
2023-02-16T22:31:36.784Z,61.4
2023-02-16T22:33:38.186Z,61.6
2023-02-16T22:35:40.867Z,62
2023-02-16T22:37:38.248Z,61.5
2023-02-16T22:39:36.714Z,61.8
2023-02-16T22:41:36.866Z,61.7
2023-02-16T22:43:36.699Z,62.3
2023-02-16T22:45:37.973Z,62.1
2023-02-16T22:47:39.199Z,62.3
2023-02-16T22:49:36.837Z,62
2023-02-16T22:51:36.755Z,62.4
2023-02-16T22:53:37.108Z,62.5
2023-02-16T22:55:36.903Z,62.4
2023-02-16T22:57:36.738Z,62.5
2023-02-16T22:59:36.680Z,62.9
2023-02-16T23:01:36.909Z,62.8
2023-02-16T23:03:36.685Z,63.4
2023-02-16T23:05:37.798Z,63.4
2023-02-16T23:07:36.679Z,63.5
2023-02-16T23:09:37.749Z,63.7
2023-02-16T23:11:36.659Z,64
2023-02-16T23:13:36.590Z,63.5
2023-02-16T23:15:37.851Z,63.7
2023-02-16T23:17:36.631Z,64.6
2023-02-16T23:19:36.606Z,64.4
2023-02-16T23:21:36.654Z,63.7
2023-02-16T23:23:36.590Z,64.3
2023-02-16T23:25:36.594Z,64.2
2023-02-16T23:27:36.812Z,63.9
2023-02-16T23:29:36.652Z,64.5
2023-02-16T23:31:36.629Z,64.9
2023-02-16T23:33:36.548Z,64.6
2023-02-16T23:35:36.541Z,64.7
2023-02-16T23:37:36.609Z,65.2
2023-02-16T23:39:36.575Z,64.6
2023-02-16T23:41:36.528Z,64.4
2023-02-16T23:43:37.716Z,64.5
2023-02-16T23:45:39.028Z,64.6
2023-02-16T23:47:36.536Z,64.8
2023-02-16T23:49:36.511Z,64.8
2023-02-16T23:51:36.542Z,64.7
2023-02-16T23:53:36.561Z,65.3
2023-02-16T23:55:36.563Z,64.9
2023-02-16T23:57:36.632Z,65.2
2023-02-16T23:59:36.590Z,65.2
